Time;durP1;ratioP1;P1;durP2;ratioP2;P2;SDS_P1;SDS_P2;PMS_P1;PMS_P2;Temp;Humidity;BMP_temperature;BMP_pressure;BME280_temperature;BME280_humidity;BME280_pressure;Samples;Min_cycle;Max_cycle;Signal;HPM_P1;HPM_P2
2024/02/11 00:00:47;;;;;;;12.63;8.13;;;16.20;74.30;;;;;;4980550;28;20046;-79
2024/02/11 00:03:13;;;;;;;12.68;7.45;;;16.30;74.30;;;;;;5003151;28;20519;-79
2024/02/11 00:05:38;;;;;;;15.45;7.88;;;16.30;74.10;;;;;;4998941;28;20048;-78
2024/02/11 00:08:04;;;;;;;13.02;7.07;;;16.30;74.00;;;;;;5017555;28;20450;-79
2024/02/11 00:10:30;;;;;;;10.07;6.50;;;16.40;73.90;;;;;;5012499;28;20038;-79
2024/02/11 00:12:57;;;;;;;10.25;6.55;;;16.40;73.80;;;;;;4985665;28;20054;-79
2024/02/11 00:15:23;;;;;;;8.50;6.07;;;16.40;73.50;;;;;;5013108;28;20031;-78
2024/02/11 00:17:48;;;;;;;8.85;6.50;;;16.50;73.30;;;;;;4998388;28;20038;-79
2024/02/11 00:20:15;;;;;;;8.20;5.95;;;16.50;73.20;;;;;;5002628;28;20042;-79
2024/02/11 00:22:41;;;;;;;7.07;5.80;;;16.50;73.20;;;;;;5018066;28;20095;-78
2024/02/11 00:25:09;;;;;;;7.97;5.68;;;16.50;73.20;;;;;;4980108;28;20050;-79
2024/02/11 00:27:39;;;;;;;10.27;5.82;;;16.50;73.10;;;;;;4990900;28;20042;-79
2024/02/11 00:30:05;;;;;;;7.07;5.55;;;16.50;73.00;;;;;;4990510;28;20043;-79
2024/02/11 00:32:31;;;;;;;7.80;6.00;;;16.50;73.00;;;;;;4994151;28;20049;-79
2024/02/11 00:34:58;;;;;;;9.60;5.70;;;16.50;73.00;;;;;;4981280;28;20440;-79
2024/02/11 00:37:23;;;;;;;9.90;5.93;;;16.50;73.10;;;;;;5008014;28;20054;-81
2024/02/11 00:39:49;;;;;;;7.88;5.35;;;16.50;72.90;;;;;;4969405;28;20072;-81
2024/02/11 00:42:19;;;;;;;7.82;5.25;;;16.50;73.00;;;;;;5021365;28;20042;-82
2024/02/11 00:44:45;;;;;;;10.35;5.63;;;16.50;73.00;;;;;;5016179;28;20044;-81
2024/02/11 00:47:10;;;;;;;9.30;5.68;;;16.40;73.00;;;;;;5003171;28;20039;-83
2024/02/11 00:49:36;;;;;;;7.05;5.15;;;16.50;73.20;;;;;;5017493;28;20412;-82
2024/02/11 00:52:02;;;;;;;10.38;5.35;;;16.40;73.00;;;;;;4999683;28;20519;-83
2024/02/11 00:54:27;;;;;;;6.68;5.15;;;16.40;73.00;;;;;;5001755;28;20589;-83
2024/02/11 00:56:55;;;;;;;8.85;5.40;;;16.40;73.00;;;;;;4997439;28;20392;-82
2024/02/11 00:59:21;;;;;;;5.57;4.97;;;16.40;73.00;;;;;;5000105;28;20042;-82
2024/02/11 01:01:48;;;;;;;6.03;4.50;;;16.40;73.10;;;;;;5015909;28;20037;-81
2024/02/11 01:04:14;;;;;;;8.35;4.95;;;16.50;72.90;;;;;;4997618;28;20053;-82
2024/02/11 01:06:39;;;;;;;7.63;4.85;;;16.50;73.60;;;;;;5000491;28;20034;-82
2024/02/11 01:09:06;;;;;;;6.25;4.38;;;16.40;72.90;;;;;;5002450;28;20052;-82
2024/02/11 01:11:31;;;;;;;7.32;4.53;;;16.40;73.00;;;;;;5015260;28;20133;-82
2024/02/11 01:13:57;;;;;;;7.85;4.93;;;16.40;73.00;;;;;;5017372;28;20042;-82
2024/02/11 01:16:23;;;;;;;6.25;4.55;;;16.40;73.00;;;;;;5003503;28;20132;-82
2024/02/11 01:18:48;;;;;;;4.57;4.13;;;16.40;73.10;;;;;;4998144;28;20121;-82
2024/02/11 01:21:14;;;;;;;5.22;4.50;;;16.40;73.00;;;;;;5003930;28;20045;-82
2024/02/11 01:23:40;;;;;;;5.65;4.20;;;16.40;73.00;;;;;;5001157;28;20042;-83
2024/02/11 01:26:05;;;;;;;4.90;4.30;;;16.40;73.10;;;;;;5000924;28;20046;-82
2024/02/11 01:28:31;;;;;;;4.90;3.90;;;16.40;73.10;;;;;;4985648;28;20677;-82
2024/02/11 01:30:57;;;;;;;5.25;3.80;;;16.40;73.10;;;;;;5012787;28;20088;-82
2024/02/11 01:33:23;;;;;;;5.88;4.30;;;16.40;73.80;;;;;;5014540;28;20058;-82
2024/02/11 01:35:49;;;;;;;5.93;4.15;;;16.40;73.00;;;;;;4995324;28;20072;-79
2024/02/11 01:38:14;;;;;;;4.30;3.90;;;16.40;73.00;;;;;;4998971;28;20046;-80
2024/02/11 01:40:43;;;;;;;4.70;3.60;;;16.40;73.00;;;;;;5014005;28;20667;-80
2024/02/11 01:43:09;;;;;;;5.22;3.55;;;16.40;72.90;;;;;;4997742;28;20419;-80
2024/02/11 01:45:35;;;;;;;4.30;3.90;;;16.40;72.90;;;;;;4967709;28;20512;-81
2024/02/11 01:48:04;;;;;;;3.40;3.10;;;16.40;72.90;;;;;;5002811;28;20404;-81
2024/02/11 01:50:31;;;;;;;4.03;3.63;;;16.40;73.00;;;;;;5017172;28;20116;-81
2024/02/11 01:52:57;;;;;;;5.63;3.20;;;16.30;72.90;;;;;;5003467;28;20038;-81
2024/02/11 01:55:23;;;;;;;4.03;3.38;;;16.40;73.00;;;;;;5001260;28;20139;-81
2024/02/11 01:57:49;;;;;;;4.35;3.80;;;16.40;73.00;;;;;;4982362;28;20132;-80
2024/02/11 02:00:17;;;;;;;3.83;3.50;;;16.40;73.00;;;;;;5014604;28;20082;-81
2024/02/11 02:02:43;;;;;;;5.40;3.47;;;16.30;72.80;;;;;;4998391;28;20042;-81
2024/02/11 02:05:09;;;;;;;3.63;3.22;;;16.30;72.80;;;;;;5000476;28;20119;-81
2024/02/11 02:07:34;;;;;;;3.53;3.22;;;16.40;72.90;;;;;;5002974;28;20049;-81
2024/02/11 02:10:00;;;;;;;3.72;3.40;;;16.30;72.80;;;;;;5004187;28;20046;-81
2024/02/11 02:12:26;;;;;;;3.50;3.20;;;16.30;73.00;;;;;;5006880;28;20050;-79
2024/02/11 02:14:52;;;;;;;3.72;2.65;;;16.30;73.10;;;;;;5000164;28;20041;-81
2024/02/11 02:17:17;;;;;;;3.33;3.00;;;16.30;73.00;;;;;;5000948;28;20061;-81
2024/02/11 02:19:43;;;;;;;2.80;2.55;;;16.30;73.00;;;;;;5020695;28;20038;-81
2024/02/11 02:22:08;;;;;;;4.32;3.03;;;16.30;73.00;;;;;;5000820;28;20037;-81
2024/02/11 02:24:34;;;;;;;3.38;3.08;;;16.30;72.90;;;;;;5002760;28;20034;-81
2024/02/11 02:26:59;;;;;;;2.90;2.70;;;16.30;73.00;;;;;;5002803;28;20042;-81
2024/02/11 02:29:25;;;;;;;2.70;2.50;;;16.30;73.00;;;;;;4996827;28;20046;-81
2024/02/11 02:31:51;;;;;;;4.18;2.90;;;16.30;73.00;;;;;;4999014;28;20378;-81
2024/02/11 02:34:16;;;;;;;6.15;2.88;;;16.30;72.90;;;;;;5003529;28;20161;-81
2024/02/11 02:36:42;;;;;;;4.22;2.72;;;16.30;72.90;;;;;;4998467;28;20121;-82
2024/02/11 02:39:10;;;;;;;2.78;2.58;;;16.30;72.90;;;;;;4997336;28;20479;-80
2024/02/11 02:41:36;;;;;;;3.08;2.70;;;16.30;73.00;;;;;;5018426;28;20081;-82
2024/02/11 02:44:02;;;;;;;2.83;2.50;;;16.20;72.90;;;;;;5000195;28;20483;-82
2024/02/11 02:46:28;;;;;;;2.55;2.28;;;16.30;73.00;;;;;;5010431;28;20042;-82
2024/02/11 02:48:54;;;;;;;2.92;2.42;;;16.20;72.90;;;;;;4995680;28;20041;-82
2024/02/11 02:51:20;;;;;;;2.95;2.60;;;16.20;73.70;;;;;;5015246;28;20042;-82
2024/02/11 02:53:45;;;;;;;2.72;2.53;;;16.20;73.00;;;;;;5005233;28;20026;-82
2024/02/11 02:56:13;;;;;;;3.25;2.42;;;16.20;73.00;;;;;;4998132;28;20045;-82
2024/02/11 02:58:39;;;;;;;2.97;2.08;;;16.20;72.90;;;;;;4996196;28;20041;-81
2024/02/11 03:01:04;;;;;;;2.35;2.15;;;16.20;73.00;;;;;;4997000;28;20038;-81
2024/02/11 03:03:30;;;;;;;2.72;2.20;;;16.20;72.90;;;;;;4997391;28;20504;-80
2024/02/11 03:05:56;;;;;;;2.50;2.22;;;16.20;73.00;;;;;;4997658;28;20125;-79
2024/02/11 03:08:21;;;;;;;2.45;2.22;;;16.20;73.00;;;;;;5001842;28;20095;-80
2024/02/11 03:10:47;;;;;;;3.00;2.00;;;16.20;73.00;;;;;;4996712;28;20646;-79
2024/02/11 03:13:12;;;;;;;2.55;1.98;;;16.20;72.80;;;;;;4997904;28;20092;-79
2024/02/11 03:15:38;;;;;;;3.20;2.15;;;16.20;72.90;;;;;;5002093;28;20582;-80
2024/02/11 03:18:04;;;;;;;2.40;2.20;;;16.20;72.50;;;;;;5000836;28;20030;-80
2024/02/11 03:20:30;;;;;;;2.55;2.35;;;16.20;72.90;;;;;;5012864;28;20177;-79
2024/02/11 03:22:55;;;;;;;3.63;2.00;;;16.20;72.80;;;;;;4997489;28;20049;-82
2024/02/11 03:25:21;;;;;;;2.10;1.88;;;16.20;72.50;;;;;;5015872;28;20030;-83
2024/02/11 03:27:52;;;;;;;2.03;1.92;;;16.20;73.00;;;;;;5014247;28;20049;-82
2024/02/11 03:30:21;;;;;;;2.53;2.10;;;16.10;72.80;;;;;;5000445;28;20042;-82
2024/02/11 03:32:48;;;;;;;2.83;2.28;;;16.20;72.80;;;;;;4999175;28;20089;-82
2024/02/11 03:35:13;;;;;;;2.08;1.80;;;16.10;73.00;;;;;;4998862;28;20030;-81
2024/02/11 03:37:39;;;;;;;1.75;1.65;;;16.10;72.30;;;;;;4999326;28;20046;-81
2024/02/11 03:40:09;;;;;;;2.03;1.90;;;16.10;72.70;;;;;;5000580;28;20508;-81
2024/02/11 03:42:35;;;;;;;1.95;1.70;;;16.10;72.50;;;;;;5004373;28;20061;-81
2024/02/11 03:45:04;;;;;;;2.28;1.40;;;16.10;72.80;;;;;;5013820;28;20571;-80
2024/02/11 03:47:29;;;;;;;1.70;1.60;;;16.10;72.10;;;;;;4997346;28;20045;-80
2024/02/11 03:49:55;;;;;;;1.85;1.55;;;16.10;72.00;;;;;;5000612;28;20035;-80
2024/02/11 03:52:20;;;;;;;1.98;1.45;;;16.10;71.90;;;;;;5016902;28;20049;-80
2024/02/11 03:54:46;;;;;;;3.20;1.50;;;16.10;72.10;;;;;;5000166;28;20041;-80
2024/02/11 03:57:11;;;;;;;1.48;1.38;;;16.10;71.90;;;;;;4997681;28;20092;-80
2024/02/11 03:59:37;;;;;;;1.52;1.42;;;16.10;72.00;;;;;;5012833;28;20382;-80
2024/02/11 04:02:03;;;;;;;2.08;1.30;;;16.10;71.90;;;;;;5001345;28;20029;-80
2024/02/11 04:04:28;;;;;;;1.63;1.52;;;16.10;71.90;;;;;;4998982;28;20080;-80
2024/02/11 04:06:54;;;;;;;1.38;1.27;;;16.10;72.00;;;;;;5000622;28;20080;-79
2024/02/11 04:09:28;;;;;;;1.45;1.35;;;16.10;72.00;;;;;;4999133;28;20509;-80
2024/02/11 04:11:57;;;;;;;2.00;1.42;;;16.10;71.90;;;;;;4991651;28;20107;-79
2024/02/11 04:14:22;;;;;;;1.50;1.40;;;16.10;71.90;;;;;;5000879;28;20034;-80
2024/02/11 04:16:52;;;;;;;2.20;1.80;;;16.10;72.20;;;;;;5010742;28;20038;-80
2024/02/11 04:19:20;;;;;;;1.67;1.52;;;16.10;72.10;;;;;;4998346;28;20069;-81
2024/02/11 04:21:48;;;;;;;1.85;1.60;;;16.00;71.90;;;;;;4997394;28;20080;-82
2024/02/11 04:24:16;;;;;;;1.95;1.52;;;16.10;72.00;;;;;;5001221;28;20148;-81
2024/02/11 04:26:42;;;;;;;2.08;1.30;;;16.10;71.90;;;;;;5014126;28;20083;-82
2024/02/11 04:29:12;;;;;;;2.50;1.40;;;16.00;72.00;;;;;;4999365;28;20125;-82
2024/02/11 04:31:41;;;;;;;1.70;1.48;;;16.00;72.00;;;;;;5001469;28;20049;-82
2024/02/11 04:34:08;;;;;;;1.70;1.55;;;16.00;71.80;;;;;;4995941;28;20586;-82
2024/02/11 04:36:37;;;;;;;1.13;1.13;;;16.00;71.90;;;;;;4998489;28;20069;-83
2024/02/11 04:39:07;;;;;;;2.40;1.65;;;16.00;71.90;;;;;;4997468;28;20076;-81
2024/02/11 04:41:36;;;;;;;1.40;1.30;;;16.00;72.00;;;;;;4998647;28;20526;-82
2024/02/11 04:44:03;;;;;;;1.67;1.20;;;16.00;72.80;;;;;;5015078;28;20125;-82
2024/02/11 04:46:29;;;;;;;1.85;1.50;;;16.00;72.00;;;;;;4995571;28;20046;-83
2024/02/11 04:48:56;;;;;;;1.40;1.30;;;16.00;72.00;;;;;;5001027;28;20431;-80
2024/02/11 04:51:22;;;;;;;2.28;1.17;;;16.00;71.90;;;;;;4995482;28;20065;-80
2024/02/11 04:53:48;;;;;;;1.73;1.40;;;16.00;71.60;;;;;;5011404;28;20030;-80
2024/02/11 04:56:16;;;;;;;1.42;1.15;;;16.00;72.10;;;;;;4997465;28;20045;-80
2024/02/11 04:58:41;;;;;;;1.90;1.80;;;16.00;72.00;;;;;;4999901;28;20030;-80
2024/02/11 05:01:08;;;;;;;4.60;1.48;;;16.00;71.90;;;;;;4994344;28;20036;-79
2024/02/11 05:03:34;;;;;;;1.05;0.93;;;16.00;72.00;;;;;;4999763;28;20045;-79
2024/02/11 05:06:00;;;;;;;1.45;1.35;;;16.00;71.70;;;;;;4993374;28;20035;-79
2024/02/11 05:08:27;;;;;;;1.30;1.20;;;16.00;72.00;;;;;;4997063;28;20046;-80
2024/02/11 05:10:52;;;;;;;1.50;1.20;;;16.00;71.80;;;;;;5016898;28;20026;-80
2024/02/11 05:13:18;;;;;;;1.70;1.23;;;16.00;71.50;;;;;;4996230;28;20323;-80
2024/02/11 05:15:44;;;;;;;1.10;1.00;;;16.00;71.70;;;;;;5003194;28;20076;-81
2024/02/11 05:18:18;;;;;;;1.10;1.00;;;16.00;71.90;;;;;;5001551;28;20146;-81
2024/02/11 05:20:44;;;;;;;1.20;1.10;;;16.00;71.80;;;;;;5003356;28;20057;-82
2024/02/11 05:23:10;;;;;;;1.42;1.00;;;16.00;71.80;;;;;;5004211;28;20472;-82
2024/02/11 05:25:39;;;;;;;1.30;1.10;;;16.00;71.80;;;;;;5003571;28;20030;-82
2024/02/11 05:28:08;;;;;;;0.98;0.90;;;15.90;71.90;;;;;;5015859;28;20046;-82
2024/02/11 05:30:34;;;;;;;1.98;1.40;;;16.00;71.80;;;;;;5018484;28;20054;-81
2024/02/11 05:33:02;;;;;;;1.10;1.00;;;16.00;71.90;;;;;;5014372;28;22109;-81
2024/02/11 05:35:27;;;;;;;1.30;1.20;;;15.90;71.90;;;;;;5003153;28;20034;-81
2024/02/11 05:37:57;;;;;;;1.60;1.48;;;15.90;72.00;;;;;;5001980;28;20049;-81
2024/02/11 05:40:26;;;;;;;1.35;1.20;;;15.90;72.20;;;;;;5000342;28;20097;-81
2024/02/11 05:42:53;;;;;;;1.80;1.30;;;15.90;72.30;;;;;;5016775;28;20436;-81
2024/02/11 05:45:22;;;;;;;0.90;0.90;;;15.90;71.90;;;;;;4998414;28;20073;-81
2024/02/11 05:47:49;;;;;;;1.13;1.02;;;15.90;72.00;;;;;;5003343;28;20065;-81
2024/02/11 05:50:14;;;;;;;1.10;1.00;;;15.90;72.00;;;;;;4998905;28;20034;-81
2024/02/11 05:52:40;;;;;;;1.40;1.05;;;15.90;72.50;;;;;;4998711;28;20591;-81
2024/02/11 05:55:09;;;;;;;1.10;0.95;;;15.90;71.90;;;;;;5001184;28;20447;-80
2024/02/11 05:57:37;;;;;;;1.20;1.08;;;15.90;71.90;;;;;;4987115;28;20034;-81
2024/02/11 06:00:03;;;;;;;1.33;1.15;;;15.90;72.20;;;;;;5002342;28;20061;-81
2024/02/11 06:02:29;;;;;;;1.05;0.95;;;15.90;72.20;;;;;;4996650;28;20108;-81
2024/02/11 06:04:55;;;;;;;1.52;0.88;;;15.90;72.00;;;;;;4998198;28;20056;-81
2024/02/11 06:07:20;;;;;;;1.10;1.00;;;15.90;72.10;;;;;;4997855;28;20058;-81
2024/02/11 06:09:46;;;;;;;1.15;1.00;;;15.90;71.80;;;;;;5005377;28;20055;-81
2024/02/11 06:12:12;;;;;;;1.02;0.93;;;15.80;71.70;;;;;;4996735;28;20397;-81
2024/02/11 06:14:38;;;;;;;1.45;0.90;;;15.90;72.10;;;;;;4999616;28;20034;-81
2024/02/11 06:17:06;;;;;;;1.15;0.90;;;15.90;71.70;;;;;;4998034;28;20057;-81
2024/02/11 06:19:33;;;;;;;0.95;0.77;;;15.90;71.80;;;;;;5017421;28;20060;-81
2024/02/11 06:22:01;;;;;;;0.90;0.80;;;15.90;71.70;;;;;;5018794;28;20065;-80
2024/02/11 06:24:27;;;;;;;1.00;0.90;;;15.80;72.00;;;;;;5003302;28;20038;-81
2024/02/11 06:26:53;;;;;;;1.63;0.70;;;15.80;72.00;;;;;;5004792;28;20041;-83
2024/02/11 06:29:19;;;;;;;0.98;0.90;;;15.90;72.30;;;;;;5000639;28;20169;-82
2024/02/11 06:31:49;;;;;;;0.70;0.65;;;15.90;71.90;;;;;;5001248;28;20045;-83
2024/02/11 06:34:14;;;;;;;0.90;0.90;;;15.90;72.20;;;;;;4997686;28;20054;-83
2024/02/11 06:36:40;;;;;;;0.60;0.57;;;15.80;72.10;;;;;;4998935;28;20116;-83
2024/02/11 06:39:10;;;;;;;0.80;0.80;;;15.90;71.70;;;;;;4983282;28;20081;-84
2024/02/11 06:41:39;;;;;;;1.10;0.82;;;15.80;72.00;;;;;;5000834;28;20053;-82
2024/02/11 06:44:06;;;;;;;0.98;0.73;;;15.80;72.60;;;;;;5000187;28;20050;-81
2024/02/11 06:46:32;;;;;;;1.00;0.90;;;15.80;72.20;;;;;;5017361;28;20403;-81
2024/02/11 06:49:00;;;;;;;1.08;0.98;;;15.80;72.20;;;;;;4984283;28;20074;-81
2024/02/11 06:51:27;;;;;;;0.70;0.70;;;15.80;72.50;;;;;;5002181;28;20046;-82
2024/02/11 06:53:52;;;;;;;0.88;0.70;;;15.80;71.80;;;;;;5003386;28;20133;-80
2024/02/11 06:56:18;;;;;;;0.90;0.90;;;15.80;72.20;;;;;;5000085;28;20542;-80
2024/02/11 06:58:44;;;;;;;1.00;0.90;;;15.80;71.90;;;;;;4999695;28;20041;-80
2024/02/11 07:01:12;;;;;;;0.90;0.82;;;15.80;72.20;;;;;;4995878;28;20046;-80
2024/02/11 07:03:38;;;;;;;1.08;0.95;;;15.80;72.80;;;;;;5000764;28;20058;-80
2024/02/11 07:06:08;;;;;;;0.90;0.73;;;15.80;71.80;;;;;;5003042;28;20041;-81
2024/02/11 07:08:36;;;;;;;0.75;0.73;;;15.80;71.70;;;;;;5002112;28;20074;-81
2024/02/11 07:11:02;;;;;;;0.65;0.65;;;15.80;72.00;;;;;;4997550;28;20053;-81
2024/02/11 07:13:28;;;;;;;1.05;0.95;;;15.80;72.10;;;;;;4998725;28;20050;-82
2024/02/11 07:15:56;;;;;;;0.80;0.70;;;15.80;71.70;;;;;;4998216;28;20153;-81
2024/02/11 07:18:21;;;;;;;0.77;0.77;;;15.80;71.70;;;;;;4999619;28;20577;-81
2024/02/11 07:20:47;;;;;;;1.08;0.98;;;15.90;72.00;;;;;;5002674;28;20057;-81
2024/02/11 07:23:13;;;;;;;0.80;0.80;;;15.80;73.10;;;;;;4998332;28;20535;-82
2024/02/11 07:25:39;;;;;;;0.80;0.80;;;15.80;71.70;;;;;;4995940;28;20042;-80
2024/02/11 07:28:05;;;;;;;0.68;0.68;;;15.80;72.00;;;;;;5001979;28;20050;-79
2024/02/11 07:30:31;;;;;;;0.68;0.68;;;15.80;71.90;;;;;;4999423;28;20715;-80
2024/02/11 07:32:56;;;;;;;0.65;0.60;;;15.90;72.40;;;;;;4994594;28;20455;-79
2024/02/11 07:35:23;;;;;;;0.95;0.70;;;15.90;72.20;;;;;;4997769;28;20577;-79
2024/02/11 07:37:49;;;;;;;0.95;0.80;;;15.90;73.40;;;;;;4995346;28;20045;-79
2024/02/11 07:40:16;;;;;;;0.73;0.65;;;15.90;74.60;;;;;;4997077;28;20042;-86
2024/02/11 07:42:41;;;;;;;1.92;0.82;;;15.90;75.30;;;;;;4998779;28;20504;-80
2024/02/11 07:45:07;;;;;;;0.88;0.70;;;16.00;74.50;;;;;;5000176;28;20033;-80
2024/02/11 07:47:33;;;;;;;1.25;0.90;;;16.10;74.70;;;;;;5001068;28;20512;-80
2024/02/11 07:50:00;;;;;;;1.00;0.70;;;16.10;74.70;;;;;;5001980;28;20146;-79
2024/02/11 07:52:27;;;;;;;2.25;0.73;;;16.10;75.40;;;;;;5000349;28;20432;-80
2024/02/11 07:54:53;;;;;;;0.63;0.63;;;16.10;74.90;;;;;;5000097;28;20045;-82
2024/02/11 07:57:18;;;;;;;1.80;0.75;;;16.00;75.00;;;;;;4992977;28;20196;-81
2024/02/11 07:59:45;;;;;;;0.77;0.70;;;16.00;75.10;;;;;;5001738;28;20053;-81
2024/02/11 08:02:11;;;;;;;8.75;1.38;;;16.00;75.10;;;;;;4998883;28;20056;-81
2024/02/11 08:04:36;;;;;;;2.45;0.88;;;16.10;74.80;;;;;;5004037;28;20403;-82
2024/02/11 08:07:02;;;;;;;1.73;0.80;;;16.10;75.00;;;;;;5002198;28;20037;-80
2024/02/11 08:09:27;;;;;;;0.68;0.60;;;16.20;74.40;;;;;;5001881;28;20136;-80
2024/02/11 08:11:53;;;;;;;1.98;0.55;;;16.20;73.90;;;;;;4997353;28;20042;-80
2024/02/11 08:14:19;;;;;;;0.75;0.63;;;16.10;74.10;;;;;;4996065;28;20149;-81
2024/02/11 08:16:45;;;;;;;1.38;0.50;;;16.10;74.30;;;;;;5001717;28;20095;-80
2024/02/11 08:19:11;;;;;;;0.95;0.55;;;16.00;74.30;;;;;;4997968;28;20054;-80
2024/02/11 08:21:36;;;;;;;0.55;0.50;;;16.00;74.20;;;;;;4998251;28;20381;-81
2024/02/11 08:24:04;;;;;;;2.05;0.57;;;16.00;74.10;;;;;;4985606;28;20104;-81
2024/02/11 08:26:29;;;;;;;5.32;0.82;;;16.10;75.00;;;;;;5003418;28;20056;-80
2024/02/11 08:28:59;;;;;;;1.52;0.50;;;16.00;75.10;;;;;;4999995;28;20053;-82
2024/02/11 08:31:25;;;;;;;1.25;0.73;;;16.00;75.10;;;;;;4998313;28;20049;-81
2024/02/11 08:33:51;;;;;;;0.95;0.55;;;16.10;75.50;;;;;;5000492;28;20538;-82
2024/02/11 08:36:16;;;;;;;0.85;0.57;;;16.10;75.50;;;;;;5001359;28;20309;-81
2024/02/11 08:38:42;;;;;;;0.80;0.70;;;16.10;75.80;;;;;;5015659;28;20034;-81
2024/02/11 08:41:07;;;;;;;2.80;0.70;;;16.10;75.60;;;;;;5001288;28;20049;-81
2024/02/11 08:43:33;;;;;;;1.85;0.70;;;16.10;75.40;;;;;;4995681;28;20042;-81
2024/02/11 08:46:04;;;;;;;2.33;0.55;;;16.10;76.20;;;;;;4997013;28;20054;-81
2024/02/11 08:48:31;;;;;;;0.75;0.45;;;16.00;75.70;;;;;;5002041;28;20068;-81
2024/02/11 08:50:57;;;;;;;1.25;0.40;;;16.00;75.80;;;;;;5013706;28;20595;-81
2024/02/11 08:53:23;;;;;;;3.38;0.70;;;16.00;75.70;;;;;;5010761;28;20049;-81
2024/02/11 08:55:48;;;;;;;1.05;0.60;;;16.00;75.70;;;;;;4997857;28;20049;-81
2024/02/11 08:58:17;;;;;;;0.55;0.40;;;16.00;75.30;;;;;;5017044;28;20052;-81
2024/02/11 09:00:43;;;;;;;1.45;0.60;;;16.10;75.30;;;;;;4999387;28;20397;-82
2024/02/11 09:03:09;;;;;;;1.85;0.50;;;16.00;75.30;;;;;;5000163;28;20048;-81
2024/02/11 09:05:35;;;;;;;2.45;0.70;;;16.10;75.20;;;;;;5013600;28;20049;-81
2024/02/11 09:08:01;;;;;;;0.55;0.50;;;16.10;75.30;;;;;;4999075;28;20112;-81
2024/02/11 09:10:26;;;;;;;1.00;0.55;;;16.00;75.30;;;;;;4998504;28;20108;-81
2024/02/11 09:12:52;;;;;;;0.70;0.40;;;16.00;75.30;;;;;;5002703;28;20074;-81
2024/02/11 09:15:18;;;;;;;1.38;0.45;;;16.00;75.50;;;;;;5004051;28;20042;-81
2024/02/11 09:17:43;;;;;;;1.73;0.40;;;16.00;75.60;;;;;;5001717;28;20046;-81
2024/02/11 09:20:12;;;;;;;1.35;0.57;;;15.90;75.40;;;;;;5002689;28;20042;-82
2024/02/11 09:22:39;;;;;;;3.03;0.47;;;16.00;75.10;;;;;;5000751;28;20145;-81
2024/02/11 09:25:07;;;;;;;0.65;0.65;;;16.00;74.90;;;;;;5002733;28;20578;-81
2024/02/11 09:27:32;;;;;;;0.60;0.50;;;16.00;74.40;;;;;;4997360;28;20441;-82
2024/02/11 09:29:58;;;;;;;0.55;0.50;;;16.00;75.00;;;;;;5002225;28;20054;-81
2024/02/11 09:32:24;;;;;;;0.77;0.47;;;16.00;74.30;;;;;;4997296;28;20049;-82
2024/02/11 09:34:50;;;;;;;0.88;0.40;;;16.10;74.40;;;;;;5000541;28;20056;-81
2024/02/11 09:37:16;;;;;;;0.40;0.32;;;16.10;74.20;;;;;;4992486;28;20417;-81
2024/02/11 09:39:42;;;;;;;0.32;0.30;;;16.10;74.60;;;;;;5001782;28;20050;-81
2024/02/11 09:42:12;;;;;;;0.70;0.60;;;16.10;74.70;;;;;;4999659;28;20046;-81
2024/02/11 09:44:38;;;;;;;1.02;0.60;;;16.00;74.60;;;;;;5012275;28;20208;-81
2024/02/11 09:47:05;;;;;;;0.70;0.43;;;16.10;74.40;;;;;;4979916;28;20120;-81
2024/02/11 09:49:30;;;;;;;1.63;0.30;;;16.10;74.30;;;;;;5015417;28;20046;-82
2024/02/11 09:51:57;;;;;;;2.00;0.30;;;16.10;74.60;;;;;;4993665;28;20061;-81
2024/02/11 09:54:24;;;;;;;0.45;0.38;;;16.00;74.70;;;;;;4997033;28;20202;-82
2024/02/11 09:56:49;;;;;;;0.90;0.70;;;16.10;74.50;;;;;;5007985;28;20129;-81
2024/02/11 09:59:15;;;;;;;0.75;0.47;;;16.10;74.50;;;;;;4994351;28;20172;-81
2024/02/11 10:01:43;;;;;;;1.05;0.57;;;16.10;74.20;;;;;;4997297;28;20135;-82
2024/02/11 10:04:10;;;;;;;0.80;0.63;;;16.10;74.00;;;;;;4997718;28;20038;-81
2024/02/11 10:06:41;;;;;;;0.50;0.38;;;16.10;74.30;;;;;;5013530;28;20042;-81
2024/02/11 10:09:10;;;;;;;1.55;0.45;;;16.10;74.10;;;;;;5000423;28;20357;-81
2024/02/11 10:11:37;;;;;;;0.47;0.30;;;16.10;74.60;;;;;;5001675;28;20042;-82
2024/02/11 10:14:08;;;;;;;0.40;0.40;;;16.10;74.30;;;;;;5010029;28;20038;-82
2024/02/11 10:16:34;;;;;;;1.83;0.40;;;16.10;74.20;;;;;;4996849;28;20104;-80
2024/02/11 10:19:00;;;;;;;0.50;0.30;;;16.10;74.30;;;;;;5006767;28;20494;-79
2024/02/11 10:21:27;;;;;;;0.50;0.50;;;16.10;74.20;;;;;;5004745;28;20040;-80
2024/02/11 10:23:56;;;;;;;1.08;0.60;;;16.20;75.20;;;;;;4981215;28;20045;-79
2024/02/11 10:26:22;;;;;;;0.30;0.30;;;16.20;75.10;;;;;;4999372;28;20562;-81
2024/02/11 10:28:48;;;;;;;1.73;0.57;;;16.10;75.10;;;;;;5016923;28;20052;-78
2024/02/11 10:31:14;;;;;;;1.73;0.40;;;16.20;75.00;;;;;;4999582;28;20105;-79
2024/02/11 10:33:39;;;;;;;1.23;0.50;;;16.20;74.80;;;;;;4993262;28;20411;-79
2024/02/11 10:36:06;;;;;;;1.20;0.35;;;16.20;74.80;;;;;;4997135;28;20049;-79
2024/02/11 10:38:36;;;;;;;1.00;0.60;;;16.20;74.80;;;;;;4999389;28;20423;-78
2024/02/11 10:41:02;;;;;;;0.70;0.47;;;16.20;74.70;;;;;;5008871;28;20121;-78
2024/02/11 10:43:28;;;;;;;0.50;0.40;;;16.30;74.80;;;;;;5006618;28;20516;-78
2024/02/11 10:45:54;;;;;;;2.00;0.50;;;16.30;75.30;;;;;;4993000;28;20034;-78
2024/02/11 10:48:21;;;;;;;0.93;0.60;;;16.30;75.00;;;;;;4996767;28;20538;-79
2024/02/11 10:51:08;;;;;;;1.42;0.50;;;16.30;74.60;;;;;;4988788;28;20049;-77
2024/02/11 10:53:36;;;;;;;0.80;0.40;;;16.40;74.40;;;;;;4980134;28;20521;-79
2024/02/11 10:56:02;;;;;;;1.55;0.40;;;16.40;73.50;;;;;;4993789;28;20042;-79
2024/02/11 10:58:33;;;;;;;0.40;0.30;;;16.40;74.20;;;;;;4642914;28;10000031;-77
2024/02/11 11:00:59;;;;;;;0.73;0.50;;;16.40;74.40;;;;;;4994657;28;20034;-80
2024/02/11 11:03:28;;;;;;;0.68;0.30;;;16.40;74.00;;;;;;4993329;28;20046;-80
2024/02/11 11:05:56;;;;;;;2.80;0.77;;;16.40;73.90;;;;;;4646070;28;10000447;-78
2024/02/11 11:08:23;;;;;;;2.85;0.63;;;16.40;73.90;;;;;;5005931;28;20188;-78
2024/02/11 11:10:49;;;;;;;7.13;0.95;;;16.40;73.60;;;;;;5008721;28;20045;-78
2024/02/11 11:13:15;;;;;;;1.50;0.47;;;16.30;73.70;;;;;;4988511;28;20042;-78
2024/02/11 11:15:42;;;;;;;4.03;1.05;;;16.30;73.60;;;;;;4990479;28;20522;-78
2024/02/11 11:18:10;;;;;;;3.13;1.20;;;16.40;75.70;;;;;;4991193;28;20663;-78
2024/02/11 11:20:38;;;;;;;1.77;0.57;;;16.30;76.80;;;;;;4645057;28;10000459;-78
2024/02/11 11:23:06;;;;;;;0.90;0.40;;;16.30;75.90;;;;;;4990022;28;20573;-78
2024/02/11 11:25:31;;;;;;;1.67;0.50;;;16.30;75.00;;;;;;4973512;28;20042;-78
2024/02/11 11:28:06;;;;;;;1.95;0.32;;;16.40;74.40;;;;;;5012691;28;20111;-78
2024/02/11 11:30:32;;;;;;;1.25;0.40;;;16.40;74.30;;;;;;5002199;28;20049;-78
2024/02/11 11:33:02;;;;;;;1.55;0.57;;;16.40;74.00;;;;;;5014895;28;20578;-78
2024/02/11 11:35:29;;;;;;;2.67;0.70;;;16.40;74.10;;;;;;5016533;28;20535;-78
2024/02/11 11:38:00;;;;;;;1.00;0.57;;;16.40;73.70;;;;;;5012584;28;20189;-78
2024/02/11 11:40:28;;;;;;;1.27;0.30;;;16.40;73.30;;;;;;5007907;28;20128;-78
2024/02/11 11:42:54;;;;;;;0.82;0.40;;;16.50;73.40;;;;;;4992681;28;20041;-77
2024/02/11 11:45:20;;;;;;;1.27;0.32;;;16.50;73.40;;;;;;4997959;28;20038;-77
2024/02/11 11:47:49;;;;;;;0.63;0.20;;;16.50;73.70;;;;;;4980817;28;20080;-77
2024/02/11 11:50:15;;;;;;;2.67;0.57;;;16.50;73.50;;;;;;5008455;28;20068;-78
2024/02/11 11:52:40;;;;;;;2.25;0.32;;;16.50;73.00;;;;;;4978786;28;20515;-78
2024/02/11 11:55:08;;;;;;;0.60;0.30;;;16.50;73.30;;;;;;4975456;28;20042;-78
2024/02/11 11:57:33;;;;;;;0.40;0.30;;;16.50;73.70;;;;;;4996711;28;20046;-77
2024/02/11 11:59:59;;;;;;;1.00;0.30;;;16.50;74.00;;;;;;5013230;28;20522;-78
2024/02/11 12:02:26;;;;;;;1.20;0.50;;;16.50;73.20;;;;;;4992563;28;20494;-78
2024/02/11 12:04:55;;;;;;;1.27;0.30;;;16.50;73.40;;;;;;4996055;28;20046;-79
2024/02/11 12:07:21;;;;;;;1.23;0.38;;;16.50;73.20;;;;;;5010624;28;20507;-78
2024/02/11 12:09:52;;;;;;;0.52;0.30;;;16.60;73.50;;;;;;4980336;28;20041;-78
2024/02/11 12:12:18;;;;;;;0.50;0.30;;;16.50;73.50;;;;;;4996395;28;20563;-78
2024/02/11 12:14:44;;;;;;;0.63;0.20;;;16.50;73.60;;;;;;4987689;28;20144;-78
2024/02/11 12:17:11;;;;;;;1.10;0.40;;;16.50;73.00;;;;;;4991823;28;20099;-78
2024/02/11 12:19:39;;;;;;;0.40;0.30;;;16.60;73.40;;;;;;4996572;28;20057;-78
2024/02/11 12:22:06;;;;;;;0.55;0.28;;;16.60;73.40;;;;;;4994254;28;20772;-78
2024/02/11 12:24:38;;;;;;;0.60;0.40;;;16.60;73.00;;;;;;4995201;28;20148;-78
2024/02/11 12:27:10;;;;;;;1.05;0.25;;;16.50;73.10;;;;;;4993703;28;20042;-78
2024/02/11 12:29:38;;;;;;;1.15;0.43;;;16.50;73.10;;;;;;4962922;28;20120;-78
2024/02/11 12:32:04;;;;;;;1.02;0.32;;;16.50;73.60;;;;;;5009570;28;20074;-79
2024/02/11 12:34:29;;;;;;;0.30;0.30;;;16.50;72.90;;;;;;5005597;28;20607;-78
2024/02/11 12:37:04;;;;;;;1.05;0.20;;;16.50;73.20;;;;;;5007478;28;20048;-78
2024/02/11 12:39:30;;;;;;;0.45;0.30;;;16.50;73.40;;;;;;4993489;28;20050;-78
2024/02/11 12:41:56;;;;;;;0.68;0.20;;;16.60;73.40;;;;;;4994668;28;20850;-78